createdAt,value
2022-09-25T00:01:05.082Z,24.10
2022-09-25T00:03:32.335Z,24.88
2022-09-25T00:06:07.176Z,23.92
2022-09-25T00:08:35.166Z,23.58
2022-09-25T00:11:10.341Z,24.02
2022-09-25T00:13:37.672Z,23.83
2022-09-25T00:16:05.218Z,24.00
2022-09-25T00:18:50.863Z,24.00
2022-09-25T00:21:18.153Z,23.15
2022-09-25T00:23:47.105Z,22.25
2022-09-25T00:26:18.909Z,24.58
2022-09-25T00:28:45.753Z,23.27
2022-09-25T00:31:18.515Z,24.95
2022-09-25T00:33:47.974Z,23.85
2022-09-25T00:36:14.870Z,22.42
2022-09-25T00:38:41.659Z,23.52
2022-09-25T00:41:08.515Z,24.30
2022-09-25T00:43:37.716Z,24.30
2022-09-25T00:46:10.863Z,23.88
2022-09-25T00:48:41.514Z,23.08
2022-09-25T00:51:08.194Z,24.90
2022-09-25T00:53:40.861Z,24.88
2022-09-25T00:56:11.975Z,23.17
2022-09-25T00:58:40.374Z,22.65
2022-09-25T01:01:09.088Z,22.65
2022-09-25T01:03:37.058Z,23.40
2022-09-25T01:06:03.997Z,22.98
2022-09-25T01:08:33.158Z,22.92
2022-09-25T01:10:59.823Z,21.00
2022-09-25T01:13:29.764Z,21.98
2022-09-25T01:15:59.648Z,22.52
2022-09-25T01:18:32.945Z,23.13
2022-09-25T01:21:19.879Z,23.20
2022-09-25T01:23:56.259Z,22.95
2022-09-25T01:26:44.029Z,25.17
2022-09-25T01:29:21.618Z,23.23
2022-09-25T01:32:03.901Z,21.90
2022-09-25T01:34:49.333Z,23.10
2022-09-25T01:37:20.817Z,21.98
2022-09-25T01:39:59.529Z,22.58
2022-09-25T01:42:32.808Z,21.75
2022-09-25T01:45:07.531Z,23.15
2022-09-25T01:47:39.524Z,21.13
2022-09-25T01:50:12.457Z,22.92
2022-09-25T01:52:44.674Z,21.83
2022-09-25T01:55:24.328Z,20.63
2022-09-25T01:57:58.780Z,22.55
2022-09-25T02:00:27.020Z,22.60
2022-09-25T02:03:01.664Z,22.80
2022-09-25T02:05:39.149Z,20.98
2022-09-25T02:08:10.012Z,22.55
2022-09-25T02:10:43.465Z,21.85
2022-09-25T02:13:17.231Z,21.58
2022-09-25T02:15:50.064Z,22.25
2022-09-25T02:18:37.646Z,22.52
2022-09-25T02:21:17.119Z,21.17
2022-09-25T02:23:45.225Z,22.88
2022-09-25T02:26:24.876Z,22.45
2022-09-25T02:28:53.838Z,22.30
2022-09-25T02:31:25.075Z,22.33
2022-09-25T02:33:51.987Z,21.25
2022-09-25T02:36:20.695Z,22.52
2022-09-25T02:38:49.396Z,23.40
2022-09-25T02:41:32.318Z,23.25
2022-09-25T02:44:17.643Z,25.55
2022-09-25T02:47:03.006Z,25.70
2022-09-25T02:50:06.208Z,28.10
2022-09-25T02:53:08.572Z,29.27
2022-09-25T02:55:56.872Z,27.38
2022-09-25T02:58:38.855Z,28.75
2022-09-25T03:01:08.893Z,27.27
2022-09-25T03:03:37.543Z,27.98
2022-09-25T03:06:06.082Z,30.38
2022-09-25T03:08:41.442Z,28.90
2022-09-25T03:11:14.053Z,28.08
2022-09-25T03:13:41.952Z,27.25
2022-09-25T03:16:31.328Z,28.58
2022-09-25T03:18:58.029Z,28.00
2022-09-25T03:21:24.676Z,27.90
2022-09-25T03:23:51.331Z,33.28
2022-09-25T03:26:18.100Z,31.33
2022-09-25T03:28:47.155Z,28.73
2022-09-25T03:31:13.973Z,29.67
2022-09-25T03:33:42.744Z,26.45
2022-09-25T03:36:16.537Z,25.33
2022-09-25T03:38:43.564Z,24.50
2022-09-25T03:41:12.029Z,24.50
2022-09-25T03:43:40.354Z,23.20
2022-09-25T03:46:10.104Z,23.00
2022-09-25T03:48:37.204Z,22.42
2022-09-25T03:51:04.567Z,21.60
2022-09-25T03:53:33.661Z,21.58
2022-09-25T03:56:06.328Z,22.70
2022-09-25T03:58:33.785Z,21.63
2022-09-25T04:01:01.501Z,22.52
2022-09-25T04:03:31.690Z,22.08
2022-09-25T04:06:00.070Z,22.52
2022-09-25T04:08:28.181Z,22.85
2022-09-25T04:10:59.597Z,21.98
2022-09-25T04:13:34.469Z,25.33
2022-09-25T04:16:03.621Z,25.38
2022-09-25T04:18:31.612Z,24.10
2022-09-25T04:21:00.064Z,25.95
2022-09-25T04:23:27.026Z,31.38
2022-09-25T04:25:54.138Z,29.33
2022-09-25T04:28:22.450Z,26.60
2022-09-25T04:30:49.517Z,28.88
2022-09-25T04:33:35.794Z,26.45
2022-09-25T04:36:02.591Z,25.30
2022-09-25T04:38:31.686Z,25.40
2022-09-25T04:41:00.131Z,26.65
2022-09-25T04:43:29.472Z,24.83
2022-09-25T04:46:00.235Z,24.88
2022-09-25T04:48:26.951Z,23.88
2022-09-25T04:50:53.592Z,25.17
2022-09-25T04:53:20.566Z,24.65
2022-09-25T04:55:48.087Z,23.98
2022-09-25T04:58:14.767Z,22.05
2022-09-25T05:00:42.661Z,24.25
2022-09-25T05:03:09.526Z,25.42
2022-09-25T05:05:36.478Z,27.73
2022-09-25T05:08:04.186Z,29.95
2022-09-25T05:10:33.231Z,29.45
2022-09-25T05:13:04.179Z,25.00
2022-09-25T05:15:33.504Z,25.35
2022-09-25T05:18:04.108Z,23.77
2022-09-25T05:20:31.050Z,24.73
2022-09-25T05:22:58.915Z,24.50
2022-09-25T05:25:27.102Z,23.65
2022-09-25T05:27:58.195Z,25.55
2022-09-25T05:30:26.817Z,23.92
2022-09-25T05:32:54.208Z,26.45
2022-09-25T05:35:22.607Z,27.05
2022-09-25T05:37:49.274Z,24.98
2022-09-25T05:40:17.697Z,23.73
2022-09-25T05:42:45.103Z,24.13
2022-09-25T05:45:12.427Z,24.05
2022-09-25T05:47:40.261Z,24.08
2022-09-25T05:50:09.247Z,21.50
2022-09-25T05:52:36.148Z,22.20
2022-09-25T05:55:03.621Z,22.80
2022-09-25T05:57:34.326Z,22.95
2022-09-25T06:00:02.227Z,22.80
2022-09-25T06:02:28.965Z,22.88
2022-09-25T06:04:55.646Z,21.48
2022-09-25T06:07:22.344Z,22.73
2022-09-25T06:09:48.988Z,22.80
2022-09-25T06:12:15.639Z,21.67
2022-09-25T06:14:42.272Z,19.77
2022-09-25T06:17:09.094Z,23.10
2022-09-25T06:19:35.768Z,22.00
2022-09-25T06:22:02.409Z,25.27
2022-09-25T06:24:29.028Z,21.63
2022-09-25T06:26:55.724Z,22.42
2022-09-25T06:29:22.375Z,19.67
2022-09-25T06:31:49.020Z,22.60
2022-09-25T06:34:15.679Z,21.65
2022-09-25T06:36:42.511Z,22.98
2022-09-25T06:39:09.143Z,19.95
2022-09-25T06:41:36.741Z,21.70
2022-09-25T06:44:03.493Z,21.35
2022-09-25T06:46:30.323Z,22.08
2022-09-25T06:48:59.964Z,20.23
2022-09-25T06:51:31.461Z,19.73
2022-09-25T06:53:58.858Z,19.90
2022-09-25T06:56:25.985Z,19.02
2022-09-25T06:58:52.721Z,18.52
2022-09-25T07:01:19.479Z,19.50
2022-09-25T07:03:47.229Z,18.52
2022-09-25T07:06:20.720Z,18.35
2022-09-25T07:08:48.856Z,19.80
2022-09-25T07:11:18.353Z,19.08
2022-09-25T07:13:45.463Z,17.30
2022-09-25T07:16:15.116Z,18.25
2022-09-25T07:18:42.362Z,17.50
2022-09-25T07:21:12.777Z,17.42
2022-09-25T07:26:14.864Z,16.58
2022-09-25T07:28:43.771Z,14.00
2022-09-25T07:31:12.625Z,12.00
2022-09-25T07:33:39.409Z,12.70
2022-09-25T07:36:06.852Z,12.70
2022-09-25T07:38:34.445Z,11.20
2022-09-25T07:41:01.768Z,11.85
2022-09-25T07:43:28.517Z,11.15
2022-09-25T07:45:55.218Z,12.38
2022-09-25T07:48:23.255Z,12.05
2022-09-25T07:50:50.232Z,11.10
2022-09-25T07:53:18.689Z,11.23
2022-09-25T07:55:48.401Z,12.95
2022-09-25T07:58:15.278Z,12.05
2022-09-25T08:00:42.066Z,11.07
2022-09-25T08:03:11.332Z,10.65
2022-09-25T08:05:38.040Z,12.02
2022-09-25T08:08:04.722Z,13.30
2022-09-25T08:10:32.215Z,11.32
2022-09-25T08:12:59.023Z,10.45
2022-09-25T08:15:25.854Z,12.77
2022-09-25T08:17:53.093Z,11.48
2022-09-25T08:20:20.082Z,12.50
2022-09-25T08:22:47.613Z,12.48
2022-09-25T08:25:14.771Z,13.02
2022-09-25T08:27:41.512Z,12.68
2022-09-25T08:30:11.155Z,12.45
2022-09-25T08:32:38.045Z,11.05
2022-09-25T08:35:05.208Z,11.68
2022-09-25T08:37:34.498Z,11.52
2022-09-25T08:40:01.426Z,13.90
2022-09-25T08:42:36.914Z,11.73
2022-09-25T08:45:42.325Z,12.18
2022-09-25T08:48:40.222Z,11.82
2022-09-25T08:51:08.269Z,11.95
2022-09-25T08:53:35.715Z,10.85
2022-09-25T08:56:20.166Z,10.57
2022-09-25T08:59:23.201Z,12.35
2022-09-25T09:01:54.808Z,12.20
2022-09-25T09:04:56.030Z,11.05
2022-09-25T09:07:37.130Z,9.68
2022-09-25T09:10:17.472Z,12.00
2022-09-25T09:12:47.899Z,11.75
2022-09-25T09:17:44.277Z,11.63
2022-09-25T09:20:32.106Z,11.27
2022-09-25T09:22:59.808Z,11.48
2022-09-25T09:25:38.054Z,12.45
2022-09-25T09:28:22.129Z,10.93
2022-09-25T09:30:58.900Z,11.68
2022-09-25T09:33:51.629Z,11.45
2022-09-25T09:36:56.817Z,10.68
2022-09-25T09:39:36.197Z,10.80
2022-09-25T09:42:17.496Z,10.88
2022-09-25T09:45:14.908Z,9.88
2022-09-25T09:48:02.164Z,10.70
2022-09-25T09:50:32.658Z,9.75
2022-09-25T09:53:05.771Z,9.80
2022-09-25T09:56:06.413Z,12.50
2022-09-25T09:59:06.859Z,9.50
2022-09-25T10:01:41.267Z,9.20
2022-09-25T10:04:19.440Z,9.57
2022-09-25T10:07:04.081Z,9.23
2022-09-25T10:09:31.235Z,8.65
2022-09-25T10:12:08.550Z,9.27
2022-09-25T10:14:41.011Z,9.30
2022-09-25T10:17:11.443Z,9.15
2022-09-25T10:19:56.944Z,8.23
2022-09-25T10:22:37.115Z,8.60
2022-09-25T10:25:06.534Z,8.98
2022-09-25T10:27:36.624Z,9.13
2022-09-25T10:30:03.332Z,9.38
2022-09-25T10:32:32.920Z,9.68
2022-09-25T10:34:59.966Z,7.85
2022-09-25T10:37:34.881Z,8.88
2022-09-25T10:40:08.352Z,8.50
2022-09-25T10:42:41.288Z,7.53
2022-09-25T10:45:26.092Z,7.97
2022-09-25T10:48:11.436Z,8.15
2022-09-25T10:50:38.143Z,9.23
2022-09-25T10:53:06.873Z,9.30
2022-09-25T10:55:39.642Z,9.02
2022-09-25T10:58:18.582Z,7.57
2022-09-25T11:00:51.712Z,7.60
2022-09-25T11:03:27.804Z,6.60
2022-09-25T11:06:05.452Z,6.78
2022-09-25T11:08:37.970Z,7.80
2022-09-25T11:11:05.742Z,7.47
2022-09-25T11:13:46.904Z,7.20
2022-09-25T11:16:14.098Z,7.85
2022-09-25T11:18:51.897Z,6.97
2022-09-25T11:21:39.053Z,7.57
2022-09-25T11:24:17.345Z,6.53
2022-09-25T11:27:16.492Z,7.20
2022-09-25T11:30:04.267Z,11.05
2022-09-25T11:33:03.925Z,6.65
2022-09-25T11:35:49.680Z,8.82
2022-09-25T11:39:07.829Z,7.18
2022-09-25T11:41:58.069Z,6.68
2022-09-25T11:44:46.134Z,6.93
2022-09-25T11:47:41.015Z,6.85
2022-09-25T11:50:16.259Z,5.97
2022-09-25T11:53:01.961Z,9.57
2022-09-25T11:56:02.897Z,8.18
2022-09-25T11:58:37.624Z,6.30
2022-09-25T12:01:10.669Z,6.40
2022-09-25T12:04:05.453Z,6.28
2022-09-25T12:07:09.945Z,7.50
2022-09-25T12:09:55.824Z,6.35
2022-09-25T12:12:45.089Z,6.28
2022-09-25T12:15:36.295Z,6.85
2022-09-25T12:18:23.676Z,6.93
2022-09-25T12:20:58.009Z,5.75
2022-09-25T12:23:47.772Z,6.20
2022-09-25T12:26:30.915Z,6.40
2022-09-25T12:29:19.572Z,5.80
2022-09-25T12:32:04.460Z,7.70
2022-09-25T12:35:11.020Z,6.60
2022-09-25T12:37:50.915Z,6.88
2022-09-25T12:40:40.934Z,7.22
2022-09-25T12:43:14.180Z,6.32
2022-09-25T12:46:01.880Z,6.00
2022-09-25T12:48:52.206Z,5.47
2022-09-25T12:54:23.232Z,6.32
2022-09-25T12:57:10.924Z,6.53
2022-09-25T12:59:55.900Z,6.80
2022-09-25T13:02:45.180Z,6.45
2022-09-25T13:05:22.666Z,6.18
2022-09-25T13:07:55.542Z,6.68
2022-09-25T13:10:50.632Z,6.80
2022-09-25T13:13:24.739Z,6.70
2022-09-25T13:15:55.859Z,6.63
2022-09-25T13:18:24.907Z,6.93
2022-09-25T13:20:53.270Z,7.15
2022-09-25T13:23:48.146Z,6.80
2022-09-25T13:26:17.678Z,7.30
2022-09-25T13:28:59.576Z,7.85
2022-09-25T13:31:44.689Z,6.95
2022-09-25T13:34:18.041Z,6.55
2022-09-25T13:36:53.819Z,6.85
2022-09-25T13:39:50.289Z,9.77
2022-09-25T13:42:29.683Z,7.82
2022-09-25T13:45:07.821Z,7.57
2022-09-25T13:47:38.297Z,8.63
2022-09-25T13:52:40.392Z,10.57
2022-09-25T13:55:22.184Z,7.88
2022-09-25T13:57:58.389Z,9.65
2022-09-25T14:00:53.633Z,13.45
2022-09-25T14:03:44.158Z,9.32
2022-09-25T14:06:22.755Z,9.35
2022-09-25T14:08:50.638Z,11.25
2022-09-25T14:11:22.758Z,15.90
2022-09-25T14:13:55.183Z,10.82
2022-09-25T14:16:32.485Z,14.43
2022-09-25T14:19:01.451Z,12.52
2022-09-25T14:21:29.935Z,9.68
2022-09-25T14:24:11.770Z,8.43
2022-09-25T14:26:45.080Z,8.35
2022-09-25T14:29:17.512Z,8.88
2022-09-25T14:32:36.216Z,9.02
2022-09-25T14:35:28.270Z,9.25
2022-09-25T14:38:26.827Z,9.80
2022-09-25T14:41:21.554Z,9.70
2022-09-25T14:44:12.367Z,9.88
2022-09-25T14:46:39.489Z,10.23
2022-09-25T14:49:26.661Z,11.02
2022-09-25T14:51:58.783Z,9.98
2022-09-25T14:54:29.351Z,10.82
2022-09-25T14:56:57.941Z,11.13
2022-09-25T14:59:40.334Z,10.32
2022-09-25T15:02:17.721Z,11.23
2022-09-25T15:04:44.643Z,11.10
2022-09-25T15:07:22.738Z,11.55
2022-09-25T15:09:55.446Z,12.23
2022-09-25T15:12:29.625Z,10.38
2022-09-25T15:15:12.624Z,10.23
2022-09-25T15:17:49.898Z,10.65
2022-09-25T15:20:26.309Z,11.13
2022-09-25T15:23:03.492Z,13.77
2022-09-25T15:25:44.875Z,12.35
2022-09-25T15:28:16.826Z,9.82
2022-09-25T15:30:46.371Z,10.98
2022-09-25T15:33:24.772Z,10.70
2022-09-25T15:35:56.630Z,9.75
2022-09-25T15:38:31.790Z,10.50
2022-09-25T15:40:59.291Z,10.40
2022-09-25T15:43:26.219Z,10.95
2022-09-25T15:46:08.425Z,11.10
2022-09-25T15:48:41.938Z,11.60
2022-09-25T15:51:19.731Z,16.40
2022-09-25T15:53:52.440Z,15.48
2022-09-25T15:56:39.512Z,16.52
2022-09-25T15:59:28.983Z,15.95
2022-09-25T16:02:14.908Z,15.37
2022-09-25T16:04:51.760Z,15.45
2022-09-25T16:07:25.834Z,14.93
2022-09-25T16:09:54.864Z,13.82
2022-09-25T16:12:22.952Z,14.95
2022-09-25T16:14:50.261Z,15.38
2022-09-25T16:17:21.192Z,15.02
2022-09-25T16:20:00.739Z,15.60
2022-09-25T16:22:29.181Z,15.82
2022-09-25T16:24:55.929Z,16.10
2022-09-25T16:27:34.123Z,16.75
2022-09-25T16:30:04.439Z,17.75
2022-09-25T16:32:32.434Z,17.15
2022-09-25T16:35:21.054Z,16.63
2022-09-25T16:38:18.965Z,15.13
2022-09-25T16:41:06.944Z,15.32
2022-09-25T16:43:55.332Z,15.00
2022-09-25T16:46:23.258Z,14.30
2022-09-25T16:49:01.337Z,16.90
2022-09-25T16:51:30.958Z,16.83
2022-09-25T16:54:01.661Z,16.90
2022-09-25T16:56:31.492Z,20.25
2022-09-25T16:58:59.430Z,21.08
2022-09-25T17:01:28.498Z,22.48
2022-09-25T17:04:02.783Z,21.42
2022-09-25T17:06:31.498Z,22.50
2022-09-25T17:09:01.614Z,22.90
2022-09-25T17:11:31.083Z,22.20
2022-09-25T17:13:57.762Z,27.90
2022-09-25T17:16:29.711Z,26.42
2022-09-25T17:19:01.183Z,26.25
2022-09-25T17:21:44.946Z,26.20
2022-09-25T17:24:30.782Z,25.98
2022-09-25T17:26:58.029Z,30.45
2022-09-25T17:29:24.758Z,32.40
2022-09-25T17:31:51.497Z,30.08
2022-09-25T17:34:25.154Z,29.08
2022-09-25T17:36:52.351Z,30.15
2022-09-25T17:39:19.000Z,33.38
2022-09-25T17:41:45.842Z,30.42
2022-09-25T17:44:16.977Z,31.33
2022-09-25T17:46:44.315Z,31.75
2022-09-25T17:49:11.631Z,34.03
2022-09-25T17:51:38.607Z,33.45
2022-09-25T17:54:06.839Z,27.95
2022-09-25T17:56:34.929Z,20.92
2022-09-25T18:05:28.573Z,36.30
2022-09-25T18:07:56.018Z,37.60
2022-09-25T18:10:23.858Z,37.88
2022-09-25T18:12:50.576Z,37.20
2022-09-25T18:15:20.409Z,31.25
2022-09-25T18:17:47.047Z,36.20
2022-09-25T18:20:33.211Z,34.30
2022-09-25T18:22:59.944Z,32.55
2022-09-25T18:25:27.757Z,29.42
2022-09-25T18:27:54.712Z,30.80
2022-09-25T18:30:25.254Z,29.13
2022-09-25T18:32:53.624Z,28.60
2022-09-25T18:35:21.332Z,31.30
2022-09-25T18:37:48.871Z,32.03
2022-09-25T18:40:18.651Z,29.05
2022-09-25T18:42:46.424Z,30.08
2022-09-25T18:45:13.705Z,29.08
2022-09-25T18:47:42.416Z,29.33
2022-09-25T18:50:10.930Z,28.30
2022-09-25T18:52:38.636Z,29.70
2022-09-25T18:55:06.546Z,28.17
2022-09-25T18:57:38.469Z,25.83
2022-09-25T19:00:07.590Z,26.55
2022-09-25T19:02:38.911Z,25.52
2022-09-25T19:05:07.106Z,26.15
2022-09-25T19:07:33.961Z,26.92
2022-09-25T19:10:07.823Z,27.73
2022-09-25T19:12:34.698Z,28.95
2022-09-25T19:15:04.857Z,29.23
2022-09-25T19:17:32.121Z,32.35
2022-09-25T19:20:00.528Z,36.90
2022-09-25T19:22:27.281Z,41.92
2022-09-25T19:24:55.360Z,45.15
2022-09-25T19:27:22.440Z,49.50
2022-09-25T19:29:49.194Z,47.65
2022-09-25T19:32:17.725Z,44.28
2022-09-25T19:34:44.683Z,38.78
2022-09-25T19:37:11.546Z,42.75
2022-09-25T19:39:58.162Z,46.30
2022-09-25T19:42:27.300Z,48.63
2022-09-25T19:44:55.896Z,46.63
2022-09-25T19:47:23.539Z,50.85
2022-09-25T19:49:50.446Z,46.67
2022-09-25T19:52:17.372Z,44.85
2022-09-25T19:54:44.089Z,43.35
2022-09-25T19:57:11.240Z,44.65
2022-09-25T19:59:37.919Z,44.60
2022-09-25T20:02:04.673Z,43.05
2022-09-25T20:04:31.520Z,44.00
2022-09-25T20:06:58.838Z,43.85
2022-09-25T20:09:27.196Z,46.08
2022-09-25T20:11:55.569Z,47.33
2022-09-25T20:14:25.650Z,50.17
2022-09-25T20:16:53.977Z,48.67
2022-09-25T20:19:21.553Z,50.10
2022-09-25T20:21:48.825Z,44.97
2022-09-25T20:24:15.896Z,47.70
2022-09-25T20:26:42.631Z,44.28
2022-09-25T20:29:12.936Z,44.90
2022-09-25T20:34:21.504Z,41.85
2022-09-25T20:36:48.244Z,40.63
2022-09-25T20:39:20.870Z,41.50
2022-09-25T20:41:49.039Z,40.35
2022-09-25T20:44:15.728Z,38.38
2022-09-25T20:46:43.271Z,38.63
2022-09-25T20:49:10.697Z,37.75
2022-09-25T20:51:37.417Z,36.05
2022-09-25T20:54:09.343Z,35.30
2022-09-25T20:56:43.928Z,36.25
2022-09-25T20:59:11.949Z,37.45
2022-09-25T21:01:40.924Z,32.22
2022-09-25T21:04:11.086Z,36.60
2022-09-25T21:06:42.060Z,34.90
2022-09-25T21:09:18.315Z,35.15
2022-09-25T21:11:45.445Z,33.42
2022-09-25T21:14:18.888Z,31.90
2022-09-25T21:16:47.686Z,31.77
2022-09-25T21:19:17.687Z,31.58
2022-09-25T21:21:44.980Z,35.00
2022-09-25T21:24:15.070Z,39.13
2022-09-25T21:26:42.351Z,40.38
2022-09-25T21:29:11.446Z,40.58
2022-09-25T21:31:43.746Z,40.95
2022-09-25T21:34:14.972Z,42.20
2022-09-25T21:36:42.677Z,38.70
2022-09-25T21:39:09.681Z,40.08
2022-09-25T21:41:36.546Z,38.92
2022-09-25T21:44:11.522Z,38.22
2022-09-25T21:46:38.228Z,39.28
2022-09-25T21:49:07.022Z,38.90
2022-09-25T21:51:43.273Z,38.45
2022-09-25T21:54:12.573Z,41.10
2022-09-25T21:56:39.667Z,39.85
2022-09-25T21:59:09.182Z,38.75
2022-09-25T22:01:38.754Z,37.28
2022-09-25T22:04:07.057Z,40.60
2022-09-25T22:06:37.057Z,37.65
2022-09-25T22:09:07.008Z,38.67
2022-09-25T22:11:34.610Z,39.42
2022-09-25T22:14:01.911Z,38.58
2022-09-25T22:16:32.300Z,41.85
2022-09-25T22:21:32.326Z,39.85
2022-09-25T22:23:59.578Z,41.72
2022-09-25T22:26:27.399Z,41.63
2022-09-25T22:28:56.037Z,39.80
2022-09-25T22:31:27.087Z,42.83
2022-09-25T22:34:07.794Z,44.00
2022-09-25T22:36:36.473Z,43.50
2022-09-25T22:39:04.350Z,43.72
2022-09-25T22:41:31.830Z,42.17
2022-09-25T22:44:00.678Z,42.95
2022-09-25T22:46:28.130Z,42.00
2022-09-25T22:48:59.563Z,42.08
2022-09-25T22:51:38.233Z,40.63
2022-09-25T22:54:06.832Z,38.67
2022-09-25T23:00:04.701Z,37.25
2022-09-25T23:02:57.255Z,38.28
2022-09-25T23:05:48.730Z,36.40
2022-09-25T23:08:34.879Z,34.35
2022-09-25T23:11:29.378Z,35.22
2022-09-25T23:14:56.969Z,33.65
2022-09-25T23:17:38.665Z,32.70
2022-09-25T23:20:20.255Z,32.38
2022-09-25T23:22:53.046Z,32.55
2022-09-25T23:25:29.211Z,34.25
2022-09-25T23:28:14.824Z,34.90
2022-09-25T23:30:57.037Z,32.63
2022-09-25T23:33:39.257Z,34.42
2022-09-25T23:36:17.854Z,33.03
2022-09-25T23:42:39.893Z,33.83
2022-09-25T23:45:21.416Z,35.22
2022-09-25T23:50:53.870Z,34.90
2022-09-25T23:53:50.349Z,31.92
2022-09-25T23:56:43.105Z,30.52
2022-09-25T23:59:41.154Z,30.98
